Main page
METAR-TAF:

METAR-TAF

Airports :

Piacenza Air Base

Piacenza, Italy

latitude: 44-55N, longitude: 009-44E, elevation: 134 m

Current weather observation

The report was made 9 hours and 57 minutes ago, at 17:55 UTC
Wind 1 kt from the Southwest
Temperature 7°C
Humidity 100%
Pressure 1005 hPa
Visibility 10 km or more
Scattered clouds at a height of 2000 ft
Broken clouds at a height of 3000 ft

METAR: LIMS 141755Z 23001KT 9999 SCT020 BKN030 07/07 Q1005 RMK OVC VIS MIN 9999 WIND THR30 12001KT BLU

Time: 04:52 (03:52 UTC)


TAF: missing

Weather observations and forecasts of more than 4000 airports (METAR and TAF reports).

The available stations are represented by yellow and red dots on the map.

Hover mouse over dot to see the name of the station.

Then click to see weather observations and forecasts.

To change the map : click on the green buttons with a black cross to zoom in, on the green button with a dash to zoom out, or on the green arrows for adjacent maps.


METAR-TAF: